createdAt,value
2019-06-08T00:01:20.629Z,16.10
2019-06-08T00:03:52.806Z,16.20
2019-06-08T00:06:24.682Z,16.30
2019-06-08T00:08:56.754Z,16.30
2019-06-08T00:11:29.163Z,16.30
2019-06-08T00:14:01.278Z,16.40
2019-06-08T00:16:33.484Z,16.40
2019-06-08T00:19:05.326Z,16.40
2019-06-08T00:21:37.517Z,16.30
2019-06-08T00:24:10.061Z,16.30
2019-06-08T00:26:42.283Z,16.30
2019-06-08T00:29:14.210Z,16.30
2019-06-08T00:31:46.068Z,16.30
2019-06-08T00:34:18.485Z,16.30
2019-06-08T00:36:50.988Z,16.30
2019-06-08T00:39:23.326Z,16.30
2019-06-08T00:41:55.194Z,16.30
2019-06-08T00:44:27.293Z,16.20
2019-06-08T00:46:59.222Z,16.20
2019-06-08T00:49:31.540Z,16.30
2019-06-08T00:52:03.708Z,16.20
2019-06-08T00:54:35.515Z,16.20
2019-06-08T00:57:07.384Z,16.20
2019-06-08T00:59:39.599Z,16.20
2019-06-08T01:02:11.470Z,16.20
2019-06-08T01:04:43.559Z,16.20
2019-06-08T01:07:15.777Z,16.20
2019-06-08T01:09:47.990Z,16.20
2019-06-08T01:12:20.467Z,16.20
2019-06-08T01:14:52.344Z,16.20
2019-06-08T01:17:25.144Z,16.20
2019-06-08T01:19:57.011Z,16.00
2019-06-08T01:22:29.608Z,16.00
2019-06-08T01:25:01.766Z,16.00
2019-06-08T01:27:33.913Z,15.90
2019-06-08T01:30:06.572Z,15.80
2019-06-08T01:32:38.509Z,15.80
2019-06-08T01:35:10.450Z,16.00
2019-06-08T01:37:42.317Z,16.00
2019-06-08T01:40:14.152Z,16.00
2019-06-08T01:42:46.025Z,15.90
2019-06-08T01:45:30.531Z,15.80
2019-06-08T01:48:18.646Z,15.80
2019-06-08T01:50:38.548Z,15.80
2019-06-08T01:53:10.842Z,15.70
2019-06-08T01:55:42.946Z,15.80
2019-06-08T01:58:14.821Z,15.70
2019-06-08T02:00:46.646Z,15.60
2019-06-08T02:03:19.299Z,15.60
2019-06-08T02:05:51.663Z,15.60
2019-06-08T02:08:24.432Z,15.70
2019-06-08T02:10:56.572Z,15.70
2019-06-08T02:13:29.478Z,15.70
2019-06-08T02:16:01.598Z,15.70
2019-06-08T02:18:44.142Z,15.80
2019-06-08T02:21:08.431Z,15.80
2019-06-08T02:23:40.818Z,15.90
2019-06-08T02:26:13.241Z,15.90
2019-06-08T02:28:45.100Z,15.80
2019-06-08T02:31:16.943Z,15.70
2019-06-08T02:33:49.054Z,15.60
2019-06-08T02:36:20.874Z,15.60
2019-06-08T02:38:52.990Z,15.60
2019-06-08T02:41:24.833Z,15.50
2019-06-08T02:43:57.114Z,15.40
2019-06-08T02:46:29.562Z,15.40
2019-06-08T02:49:04.880Z,15.50
2019-06-08T02:51:38.067Z,15.60
2019-06-08T02:54:11.125Z,15.60
2019-06-08T02:56:44.038Z,15.60
2019-06-08T02:59:16.182Z,15.60
2019-06-08T03:01:49.559Z,15.60
2019-06-08T03:04:22.918Z,15.60
2019-06-08T03:06:55.907Z,15.40
2019-06-08T03:09:30.411Z,15.20
2019-06-08T03:12:06.223Z,15.20
2019-06-08T03:14:39.673Z,15.20
2019-06-08T03:17:11.711Z,15.20
2019-06-08T03:19:43.945Z,15.10
2019-06-08T03:22:16.186Z,15.20
2019-06-08T03:24:48.387Z,15.20
2019-06-08T03:27:21.225Z,15.10
2019-06-08T03:29:53.090Z,14.90
2019-06-08T03:32:25.182Z,14.80
2019-06-08T03:34:57.534Z,14.60
2019-06-08T03:37:29.732Z,14.50
2019-06-08T03:40:02.187Z,14.50
2019-06-08T03:42:34.078Z,14.60
2019-06-08T03:45:06.443Z,14.70
2019-06-08T03:47:39.203Z,14.80
2019-06-08T03:50:12.286Z,14.90
2019-06-08T03:52:46.129Z,14.90
2019-06-08T03:55:17.681Z,14.90
2019-06-08T03:57:49.507Z,14.90
2019-06-08T04:00:21.625Z,14.90
2019-06-08T04:02:53.480Z,15.00
2019-06-08T04:05:25.603Z,15.00
2019-06-08T04:07:57.438Z,14.90
2019-06-08T04:10:29.754Z,14.80
2019-06-08T04:13:01.595Z,14.60
2019-06-08T04:15:33.730Z,14.70
2019-06-08T04:18:05.949Z,14.60
2019-06-08T04:20:39.700Z,14.80
2019-06-08T04:23:11.654Z,14.80
2019-06-08T04:25:45.030Z,14.80
2019-06-08T04:28:18.092Z,14.80
2019-06-08T04:30:50.229Z,14.70
2019-06-08T04:33:22.059Z,14.70
2019-06-08T04:35:54.196Z,14.70
2019-06-08T04:38:26.350Z,14.70
2019-06-08T04:40:58.227Z,14.70
2019-06-08T04:43:30.060Z,14.70
2019-06-08T04:46:01.981Z,14.70
2019-06-08T04:48:33.772Z,14.80
2019-06-08T04:51:06.214Z,14.80
2019-06-08T04:53:38.574Z,14.80
2019-06-08T04:56:10.726Z,15.00
2019-06-08T04:58:45.985Z,15.00
2019-06-08T05:01:16.519Z,14.90
2019-06-08T05:03:49.930Z,14.90
2019-06-08T05:06:22.701Z,14.70
2019-06-08T05:08:54.548Z,14.70
2019-06-08T05:11:26.498Z,14.70
2019-06-08T05:13:58.328Z,14.70
2019-06-08T05:16:30.192Z,14.70
2019-06-08T05:19:02.462Z,14.80
2019-06-08T05:21:34.406Z,14.80
2019-06-08T05:24:06.506Z,14.80
2019-06-08T05:26:39.262Z,14.90
2019-06-08T05:29:11.807Z,14.90
2019-06-08T05:31:43.922Z,14.90
2019-06-08T05:34:16.149Z,15.00
2019-06-08T05:36:48.000Z,15.00
2019-06-08T05:39:19.838Z,14.90
2019-06-08T05:41:52.916Z,15.10
2019-06-08T05:44:24.755Z,15.00
2019-06-08T05:46:56.706Z,15.10
2019-06-08T05:49:28.700Z,15.10
2019-06-08T05:52:00.947Z,15.00
2019-06-08T05:54:32.768Z,15.00
2019-06-08T05:57:04.709Z,15.10
2019-06-08T05:59:36.530Z,15.30
2019-06-08T06:02:08.672Z,15.40
2019-06-08T06:04:41.370Z,15.50
2019-06-08T06:07:14.654Z,15.50
2019-06-08T06:09:46.953Z,15.50
2019-06-08T06:12:18.892Z,15.50
2019-06-08T06:14:51.208Z,15.60
2019-06-08T06:17:23.275Z,15.80
2019-06-08T06:19:55.100Z,15.90
2019-06-08T06:22:27.036Z,16.10
2019-06-08T06:24:59.219Z,16.10
2019-06-08T06:27:31.087Z,16.20
2019-06-08T06:30:03.254Z,16.30
2019-06-08T06:32:35.526Z,16.40
2019-06-08T06:35:09.215Z,16.40
2019-06-08T06:37:41.828Z,16.50
2019-06-08T06:40:14.123Z,16.50
2019-06-08T06:42:46.039Z,16.60
2019-06-08T06:45:18.518Z,16.60
2019-06-08T06:47:52.219Z,16.70
2019-06-08T06:50:24.465Z,16.80
2019-06-08T06:52:56.609Z,17.00
2019-06-08T06:55:28.441Z,17.10
2019-06-08T06:58:00.613Z,17.30
2019-06-08T07:00:33.181Z,17.40
2019-06-08T07:03:05.417Z,17.40
2019-06-08T07:05:37.252Z,17.50
2019-06-08T07:08:09.130Z,17.60
2019-06-08T07:10:40.966Z,17.70
2019-06-08T07:13:12.900Z,17.60
2019-06-08T07:15:44.905Z,17.70
2019-06-08T07:18:16.774Z,17.70
2019-06-08T07:20:48.610Z,17.70
2019-06-08T07:23:21.126Z,17.70
2019-06-08T07:25:54.564Z,17.70
2019-06-08T07:28:26.567Z,17.80
2019-06-08T07:30:59.163Z,17.80
2019-06-08T07:33:31.426Z,17.90
2019-06-08T07:36:03.263Z,18.20
2019-06-08T07:38:35.496Z,18.50
2019-06-08T07:41:07.716Z,18.50
2019-06-08T07:43:39.691Z,18.60
2019-06-08T07:46:11.954Z,18.80
2019-06-08T07:48:43.839Z,19.10
2019-06-08T07:51:16.081Z,19.30
2019-06-08T07:53:49.696Z,19.40
2019-06-08T07:56:22.458Z,19.50
2019-06-08T07:58:54.998Z,19.60
2019-06-08T08:01:35.738Z,19.80
2019-06-08T08:04:00.754Z,19.70
2019-06-08T08:06:33.237Z,19.70
2019-06-08T08:09:06.533Z,19.80
2019-06-08T08:11:39.021Z,19.80
2019-06-08T08:14:10.902Z,20.10
2019-06-08T08:16:43.041Z,20.50
2019-06-08T08:19:15.062Z,20.30
2019-06-08T08:21:50.147Z,19.90
2019-06-08T08:24:21.492Z,19.50
2019-06-08T08:26:55.007Z,19.40
2019-06-08T08:29:28.652Z,19.50
2019-06-08T08:32:02.022Z,19.10
2019-06-08T08:34:34.059Z,18.90
2019-06-08T08:37:09.379Z,18.90
2019-06-08T08:39:39.787Z,19.10
2019-06-08T08:42:11.869Z,19.50
2019-06-08T08:44:43.966Z,20.00
2019-06-08T08:47:18.618Z,20.40
2019-06-08T08:49:51.131Z,20.50
2019-06-08T08:52:34.433Z,20.50
2019-06-08T08:55:00.382Z,20.30
2019-06-08T08:57:31.358Z,20.00
2019-06-08T09:00:05.098Z,20.00
2019-06-08T09:02:37.570Z,20.10
2019-06-08T09:05:10.434Z,20.50
2019-06-08T09:07:42.829Z,20.80
2019-06-08T09:10:18.116Z,21.20
2019-06-08T09:12:49.177Z,21.70
2019-06-08T09:15:21.117Z,21.90
2019-06-08T09:17:53.912Z,21.80
2019-06-08T09:20:28.510Z,21.70
2019-06-08T09:23:10.109Z,21.80
2019-06-08T09:25:34.018Z,22.00
2019-06-08T09:28:08.290Z,22.10
2019-06-08T09:30:39.765Z,22.20
2019-06-08T09:33:12.807Z,22.40
2019-06-08T09:35:45.045Z,22.40
2019-06-08T09:38:18.908Z,22.30
2019-06-08T09:40:50.779Z,22.00
2019-06-08T09:43:23.471Z,22.00
2019-06-08T09:45:58.730Z,22.30
2019-06-08T09:48:30.126Z,22.60
2019-06-08T09:51:04.420Z,22.80
2019-06-08T09:53:40.496Z,23.10
2019-06-08T09:56:09.951Z,23.30
2019-06-08T09:58:42.502Z,23.50
2019-06-08T10:01:15.322Z,23.50
2019-06-08T10:03:48.306Z,23.40
2019-06-08T10:06:21.649Z,23.10
2019-06-08T10:08:54.259Z,23.10
2019-06-08T10:11:28.099Z,23.30
2019-06-08T10:14:03.717Z,23.70
2019-06-08T10:16:34.661Z,23.90
2019-06-08T10:19:09.771Z,23.90
2019-06-08T10:21:43.005Z,23.80
2019-06-08T10:24:14.126Z,23.80
2019-06-08T10:26:47.794Z,23.80
2019-06-08T10:29:19.513Z,23.80
2019-06-08T10:31:51.676Z,23.80
2019-06-08T10:34:24.242Z,23.80
2019-06-08T10:36:58.892Z,23.80
2019-06-08T10:39:30.646Z,24.10
2019-06-08T10:42:03.524Z,24.20
2019-06-08T10:44:38.218Z,24.40
2019-06-08T10:47:11.941Z,24.40
2019-06-08T10:49:44.623Z,23.90
2019-06-08T10:52:20.151Z,23.70
2019-06-08T10:54:50.320Z,23.70
2019-06-08T10:57:22.508Z,23.90
2019-06-08T10:59:54.349Z,24.20
2019-06-08T11:02:28.205Z,24.40
2019-06-08T11:05:04.533Z,24.40
2019-06-08T11:07:34.061Z,24.60
2019-06-08T11:10:10.849Z,24.60
2019-06-08T11:12:40.680Z,24.90
2019-06-08T11:15:12.572Z,25.20
2019-06-08T11:17:44.448Z,25.40
2019-06-08T11:20:16.565Z,25.70
2019-06-08T11:22:50.126Z,26.10
2019-06-08T11:25:22.450Z,26.40
2019-06-08T11:28:20.536Z,26.50
2019-06-08T11:30:59.703Z,26.60
2019-06-08T11:33:31.598Z,26.90
2019-06-08T11:36:06.307Z,27.10
2019-06-08T11:38:38.233Z,27.10
2019-06-08T11:41:13.416Z,26.90
2019-06-08T11:43:43.998Z,27.00
2019-06-08T11:46:19.045Z,26.90
2019-06-08T11:48:49.813Z,26.90
2019-06-08T11:51:21.643Z,27.10
2019-06-08T11:53:53.586Z,27.10
2019-06-08T11:56:25.609Z,27.20
2019-06-08T11:58:59.292Z,27.50
2019-06-08T12:01:31.641Z,27.40
2019-06-08T12:04:03.624Z,27.50
2019-06-08T12:06:37.742Z,27.70
2019-06-08T12:09:12.292Z,27.90
2019-06-08T12:11:44.149Z,27.70
2019-06-08T12:14:17.726Z,27.70
2019-06-08T12:16:49.771Z,27.90
2019-06-08T12:19:21.930Z,28.00
2019-06-08T12:21:53.766Z,28.10
2019-06-08T12:24:38.497Z,28.30
2019-06-08T12:27:09.367Z,28.90
2019-06-08T12:29:33.193Z,29.20
2019-06-08T12:32:07.749Z,29.30
2019-06-08T12:34:38.896Z,29.50
2019-06-08T12:37:15.304Z,30.00
2019-06-08T12:39:45.255Z,30.00
2019-06-08T12:42:20.767Z,29.70
2019-06-08T12:44:51.349Z,29.70
2019-06-08T12:47:26.865Z,30.20
2019-06-08T12:49:58.575Z,30.30
2019-06-08T12:52:30.796Z,30.90
2019-06-08T12:55:06.754Z,31.00
2019-06-08T12:57:37.127Z,31.00
2019-06-08T13:00:11.268Z,31.20
2019-06-08T13:02:43.083Z,31.50
2019-06-08T13:05:17.205Z,31.60
2019-06-08T13:07:50.058Z,31.70
2019-06-08T13:10:24.065Z,31.70
2019-06-08T13:12:58.165Z,31.90
2019-06-08T13:15:30.942Z,31.90
2019-06-08T13:18:02.904Z,32.40
2019-06-08T13:20:35.020Z,32.20
2019-06-08T13:23:08.663Z,32.10
2019-06-08T13:25:43.776Z,32.00
2019-06-08T13:28:19.369Z,32.30
2019-06-08T13:30:48.627Z,32.70
2019-06-08T13:33:21.249Z,32.90
2019-06-08T13:35:53.663Z,33.20
2019-06-08T13:38:27.624Z,33.70
2019-06-08T13:40:59.624Z,34.00
2019-06-08T13:43:31.447Z,33.80
2019-06-08T13:46:03.987Z,33.50
2019-06-08T13:48:37.642Z,33.60
2019-06-08T13:51:11.933Z,34.30
2019-06-08T13:53:43.942Z,34.90
2019-06-08T13:56:19.139Z,35.20
2019-06-08T13:58:49.572Z,35.10
2019-06-08T14:01:21.738Z,34.80
2019-06-08T14:03:54.310Z,34.50
2019-06-08T14:06:28.289Z,34.60
2019-06-08T14:09:00.087Z,34.80
2019-06-08T14:11:32.367Z,34.60
2019-06-08T14:14:04.195Z,34.80
2019-06-08T14:16:38.957Z,35.10
2019-06-08T14:19:10.750Z,35.70
2019-06-08T14:21:43.698Z,35.90
2019-06-08T14:24:22.239Z,36.00
2019-06-08T14:26:51.879Z,36.30
2019-06-08T14:29:25.966Z,36.00
2019-06-08T14:31:59.083Z,35.70
2019-06-08T14:34:31.483Z,35.40
2019-06-08T14:37:03.754Z,35.10
2019-06-08T14:39:36.552Z,35.10
2019-06-08T14:42:08.501Z,35.10
2019-06-08T14:44:40.480Z,35.20
2019-06-08T14:47:15.883Z,35.10
2019-06-08T14:49:49.075Z,35.20
2019-06-08T14:52:23.567Z,35.20
2019-06-08T14:54:58.508Z,34.90
2019-06-08T14:57:31.086Z,34.40
2019-06-08T15:00:08.751Z,33.80
2019-06-08T15:02:38.113Z,33.70
2019-06-08T15:05:10.317Z,34.10
2019-06-08T15:07:43.381Z,34.30
2019-06-08T15:10:18.037Z,34.10
2019-06-08T15:12:49.363Z,33.90
2019-06-08T15:15:21.694Z,33.50
2019-06-08T15:17:53.497Z,32.60
2019-06-08T15:20:26.157Z,31.80
2019-06-08T15:22:58.259Z,31.20
2019-06-08T15:25:32.780Z,30.90
2019-06-08T15:28:08.191Z,30.90
2019-06-08T15:30:40.593Z,31.20
2019-06-08T15:33:18.175Z,31.10
2019-06-08T15:35:49.945Z,31.10
2019-06-08T15:38:29.687Z,31.30
2019-06-08T15:41:01.222Z,31.50
2019-06-08T15:43:36.858Z,32.00
2019-06-08T15:46:08.670Z,32.20
2019-06-08T15:48:41.047Z,32.60
2019-06-08T15:51:13.247Z,33.10
2019-06-08T15:53:47.746Z,33.30
2019-06-08T15:56:34.840Z,33.10
2019-06-08T15:58:54.015Z,32.90
2019-06-08T16:01:27.204Z,32.90
2019-06-08T16:03:59.518Z,32.70
2019-06-08T16:06:32.102Z,32.70
2019-06-08T16:09:05.413Z,32.50
2019-06-08T16:11:37.276Z,32.30
2019-06-08T16:14:09.420Z,32.00
2019-06-08T16:16:41.716Z,31.80
2019-06-08T16:19:13.909Z,31.60
2019-06-08T16:21:46.107Z,31.50
2019-06-08T16:24:18.632Z,31.60
2019-06-08T16:26:53.612Z,31.30
2019-06-08T16:29:24.624Z,30.90
2019-06-08T16:31:56.591Z,30.40
2019-06-08T16:34:29.200Z,29.90
2019-06-08T16:37:01.805Z,29.20
2019-06-08T16:39:37.003Z,28.60
2019-06-08T16:42:08.995Z,28.20
2019-06-08T16:44:41.741Z,27.80
2019-06-08T16:47:13.963Z,27.40
2019-06-08T16:49:46.076Z,27.00
2019-06-08T16:52:18.424Z,26.50
2019-06-08T16:54:51.012Z,26.20
2019-06-08T16:57:24.949Z,26.00
2019-06-08T16:59:56.799Z,25.80
2019-06-08T17:02:29.052Z,25.90
2019-06-08T17:05:00.892Z,25.70
2019-06-08T17:07:33.692Z,25.60
2019-06-08T17:10:05.684Z,25.40
2019-06-08T17:12:39.014Z,25.40
2019-06-08T17:15:10.988Z,25.20
2019-06-08T17:17:43.017Z,25.10
2019-06-08T17:20:15.269Z,25.10
2019-06-08T17:22:47.470Z,25.30
2019-06-08T17:25:19.802Z,25.30
2019-06-08T17:27:51.998Z,25.30
2019-06-08T17:30:23.838Z,25.30
2019-06-08T17:32:56.125Z,25.20
2019-06-08T17:35:28.641Z,25.20
2019-06-08T17:38:00.868Z,25.10
2019-06-08T17:40:34.195Z,25.00
2019-06-08T17:43:06.352Z,24.90
2019-06-08T17:45:38.567Z,24.70
2019-06-08T17:48:10.532Z,24.50
2019-06-08T17:50:43.001Z,24.30
2019-06-08T17:53:15.589Z,24.10
2019-06-08T17:55:47.662Z,23.90
2019-06-08T17:58:21.616Z,23.60
2019-06-08T18:00:53.871Z,23.30
2019-06-08T18:03:27.916Z,23.10
2019-06-08T18:06:00.548Z,22.90
2019-06-08T18:08:33.774Z,22.80
2019-06-08T18:11:07.913Z,22.60
2019-06-08T18:13:42.508Z,22.50
2019-06-08T18:16:13.397Z,22.40
2019-06-08T18:18:45.453Z,22.30
2019-06-08T18:21:18.030Z,22.20
2019-06-08T18:23:49.956Z,21.90
2019-06-08T18:26:22.049Z,21.70
2019-06-08T18:28:55.163Z,21.50
2019-06-08T18:31:27.771Z,21.30
2019-06-08T18:34:01.984Z,21.10
2019-06-08T18:36:34.635Z,21.00
2019-06-08T18:39:07.664Z,20.70
2019-06-08T18:41:41.200Z,20.60
2019-06-08T18:44:13.495Z,20.40
2019-06-08T18:46:45.320Z,20.10
2019-06-08T18:49:17.859Z,19.80
2019-06-08T18:51:51.643Z,19.60
2019-06-08T18:54:24.354Z,19.40
2019-06-08T18:56:57.014Z,19.30
2019-06-08T18:59:29.813Z,19.10
2019-06-08T19:02:02.353Z,19.00
2019-06-08T19:04:34.201Z,18.80
2019-06-08T19:07:07.882Z,18.90
2019-06-08T19:09:48.087Z,18.80
2019-06-08T19:12:23.567Z,18.70
2019-06-08T19:14:58.414Z,18.40
2019-06-08T19:17:29.998Z,18.00
2019-06-08T19:20:02.198Z,17.90
2019-06-08T19:22:34.742Z,17.80
2019-06-08T19:25:10.600Z,17.60
2019-06-08T19:27:47.555Z,17.50
2019-06-08T19:30:20.346Z,17.50
2019-06-08T19:32:52.620Z,17.40
2019-06-08T19:35:27.225Z,17.10
2019-06-08T19:37:58.704Z,16.90
2019-06-08T19:40:31.136Z,16.90
2019-06-08T19:43:03.387Z,16.80
2019-06-08T19:45:38.222Z,16.80
2019-06-08T19:48:09.731Z,16.70
2019-06-08T19:50:47.301Z,16.70
2019-06-08T19:53:19.471Z,16.60
2019-06-08T19:55:54.032Z,16.60
2019-06-08T19:58:25.457Z,16.50
2019-06-08T20:00:58.805Z,16.40
2019-06-08T20:03:31.119Z,16.40
2019-06-08T20:06:03.640Z,16.40
2019-06-08T20:08:37.506Z,16.40
2019-06-08T20:11:09.434Z,16.30
2019-06-08T20:13:41.924Z,16.20
2019-06-08T20:16:14.386Z,16.20
2019-06-08T20:18:48.628Z,16.10
2019-06-08T20:21:20.683Z,15.90
2019-06-08T20:23:53.353Z,15.80
2019-06-08T20:26:28.290Z,15.70
2019-06-08T20:29:12.038Z,15.80
2019-06-08T20:31:33.867Z,15.70
2019-06-08T20:34:07.021Z,15.60
2019-06-08T20:36:39.058Z,15.50
2019-06-08T20:39:11.168Z,15.40
2019-06-08T20:41:43.802Z,15.30
2019-06-08T20:44:15.650Z,15.20
2019-06-08T20:46:49.461Z,15.30
2019-06-08T20:49:21.588Z,15.20
2019-06-08T20:51:54.063Z,15.10
2019-06-08T20:54:27.840Z,15.10
2019-06-08T20:56:59.827Z,15.00
2019-06-08T20:59:34.292Z,14.90
2019-06-08T21:02:08.436Z,14.90
2019-06-08T21:04:40.316Z,14.90
2019-06-08T21:07:12.195Z,14.80
2019-06-08T21:09:45.415Z,14.90
2019-06-08T21:12:18.459Z,14.80
2019-06-08T21:14:52.292Z,14.50
2019-06-08T21:17:24.659Z,14.30
2019-06-08T21:19:57.896Z,14.20
2019-06-08T21:22:30.595Z,14.00
2019-06-08T21:25:02.462Z,14.00
2019-06-08T21:27:34.689Z,14.10
2019-06-08T21:30:19.883Z,14.10
2019-06-08T21:32:41.361Z,14.00
2019-06-08T21:35:14.219Z,13.90
2019-06-08T21:37:50.701Z,13.70
2019-06-08T21:40:19.900Z,13.80
2019-06-08T21:42:55.138Z,13.70
2019-06-08T21:45:27.584Z,13.60
2019-06-08T21:48:00.510Z,13.60
2019-06-08T21:50:32.508Z,13.50
2019-06-08T21:53:04.381Z,13.50
2019-06-08T21:55:38.087Z,13.40
2019-06-08T21:58:10.116Z,13.30
2019-06-08T22:00:43.592Z,13.30
2019-06-08T22:03:17.572Z,13.40
2019-06-08T22:05:49.908Z,13.40
2019-06-08T22:08:26.633Z,13.30
2019-06-08T22:11:03.827Z,13.20
2019-06-08T22:13:37.431Z,13.20
2019-06-08T22:16:10.999Z,13.10
2019-06-08T22:18:44.459Z,13.00
2019-06-08T22:21:18.085Z,12.90
2019-06-08T22:23:51.831Z,12.90
2019-06-08T22:26:24.341Z,12.80
2019-06-08T22:28:58.412Z,12.80
2019-06-08T22:31:29.943Z,12.80
2019-06-08T22:34:19.320Z,13.00
2019-06-08T22:37:04.706Z,12.90
2019-06-08T22:39:37.784Z,12.90
2019-06-08T22:42:09.619Z,12.80
2019-06-08T22:44:41.635Z,12.70
2019-06-08T22:47:14.204Z,12.70
2019-06-08T22:49:47.696Z,12.70
2019-06-08T22:52:19.574Z,12.70
2019-06-08T22:54:56.244Z,12.70
2019-06-08T22:57:27.811Z,12.60
2019-06-08T23:00:07.875Z,12.40
2019-06-08T23:02:34.086Z,12.40
2019-06-08T23:05:08.845Z,12.40
2019-06-08T23:07:40.144Z,12.40
2019-06-08T23:10:13.230Z,12.50
2019-06-08T23:12:47.225Z,12.50
2019-06-08T23:15:19.737Z,12.40
2019-06-08T23:17:52.172Z,12.30
2019-06-08T23:20:27.642Z,12.30
2019-06-08T23:23:02.713Z,12.30
2019-06-08T23:25:37.437Z,12.30
2019-06-08T23:28:10.533Z,12.40
2019-06-08T23:30:42.896Z,12.40
2019-06-08T23:33:18.638Z,12.20
2019-06-08T23:36:30.546Z,12.10
2019-06-08T23:38:24.428Z,12.10
2019-06-08T23:40:59.377Z,12.10
2019-06-08T23:43:32.026Z,12.00
2019-06-08T23:46:04.173Z,12.00
2019-06-08T23:48:37.421Z,12.10
2019-06-08T23:51:11.071Z,11.90
2019-06-08T23:53:42.952Z,11.90
2019-06-08T23:56:14.845Z,11.90
2019-06-08T23:58:48.243Z,11.90
